createdAt,value
2023-03-05T00:00:20.813Z,55.00
2023-03-05T00:01:26.695Z,55.00
2023-03-05T00:02:29.915Z,55.00
2023-03-05T00:03:32.658Z,55.00
2023-03-05T00:04:35.958Z,55.00
2023-03-05T00:05:38.203Z,55.00
2023-03-05T00:06:41.413Z,55.10
2023-03-05T00:07:44.022Z,55.10
2023-03-05T00:08:47.201Z,55.20
2023-03-05T00:09:49.377Z,55.10
2023-03-05T00:10:57.457Z,55.30
2023-03-05T00:11:59.677Z,55.40
2023-03-05T00:13:02.813Z,55.30
2023-03-05T00:14:06.114Z,55.40
2023-03-05T00:15:10.715Z,55.60
2023-03-05T00:16:16.072Z,55.60
2023-03-05T00:17:20.594Z,55.60
2023-03-05T00:18:23.968Z,55.70
2023-03-05T00:19:27.127Z,55.50
2023-03-05T00:20:29.348Z,55.50
2023-03-05T00:21:35.091Z,55.50
2023-03-05T00:22:37.347Z,55.40
2023-03-05T00:23:40.574Z,55.40
2023-03-05T00:24:43.983Z,55.50
2023-03-05T00:25:46.714Z,55.50
2023-03-05T00:26:49.866Z,55.30
2023-03-05T00:27:52.037Z,55.40
2023-03-05T00:28:57.189Z,55.50
2023-03-05T00:29:59.651Z,55.60
2023-03-05T00:31:03.188Z,55.70
2023-03-05T00:32:05.650Z,55.90
2023-03-05T00:33:12.035Z,56.20
2023-03-05T00:34:16.861Z,55.90
2023-03-05T00:35:19.998Z,55.80
2023-03-05T00:36:22.862Z,54.90
2023-03-05T00:37:25.955Z,54.10
2023-03-05T00:38:28.262Z,53.10
2023-03-05T00:39:31.431Z,52.10
2023-03-05T00:40:36.796Z,51.90
2023-03-05T00:41:40.423Z,51.30
2023-03-05T00:42:42.558Z,50.90
2023-03-05T00:43:46.953Z,51.70
2023-03-05T00:44:49.069Z,51.80
2023-03-05T00:45:52.241Z,51.80
2023-03-05T00:46:55.542Z,52.40
2023-03-05T00:47:57.856Z,52.00
2023-03-05T00:49:02.602Z,52.00
2023-03-05T00:50:06.154Z,52.10
2023-03-05T00:51:09.707Z,52.20
2023-03-05T00:52:11.884Z,52.10
2023-03-05T00:53:15.056Z,52.20
2023-03-05T00:54:17.367Z,52.40
2023-03-05T00:55:20.957Z,52.50
2023-03-05T00:56:23.374Z,52.50
2023-03-05T00:57:26.570Z,52.70
2023-03-05T00:58:28.809Z,52.80
2023-03-05T00:59:31.976Z,52.50
2023-03-05T01:00:34.160Z,52.60
2023-03-05T01:01:37.314Z,52.20
2023-03-05T01:02:39.524Z,52.90
2023-03-05T01:03:43.038Z,52.30
2023-03-05T01:04:47.364Z,52.40
2023-03-05T01:05:50.595Z,53.10
2023-03-05T01:06:52.791Z,52.50
2023-03-05T01:07:57.554Z,52.60
2023-03-05T01:09:00.613Z,52.70
2023-03-05T01:10:02.914Z,52.30
2023-03-05T01:11:07.052Z,52.50
2023-03-05T01:12:09.481Z,52.50
2023-03-05T01:13:13.164Z,52.40
2023-03-05T01:14:15.333Z,52.40
2023-03-05T01:15:18.586Z,52.40
2023-03-05T01:16:21.101Z,52.20
2023-03-05T01:17:24.218Z,52.30
2023-03-05T01:18:26.376Z,52.40
2023-03-05T01:19:29.643Z,52.50
2023-03-05T01:20:33.574Z,52.50
2023-03-05T01:21:37.872Z,52.50
2023-03-05T01:22:40.918Z,52.60
2023-03-05T01:23:44.050Z,52.50
2023-03-05T01:24:46.211Z,52.50
2023-03-05T01:25:55.439Z,52.70
2023-03-05T01:26:58.138Z,52.90
2023-03-05T01:28:01.290Z,53.00
2023-03-05T01:29:03.811Z,53.10
2023-03-05T01:30:08.712Z,53.20
2023-03-05T01:31:12.788Z,53.30
2023-03-05T01:32:15.825Z,53.40
2023-03-05T01:33:19.144Z,53.50
2023-03-05T01:34:21.408Z,53.50
2023-03-05T01:35:26.765Z,53.50
2023-03-05T01:36:30.376Z,53.60
2023-03-05T01:37:33.708Z,53.60
2023-03-05T01:38:36.838Z,53.70
2023-03-05T01:39:38.986Z,53.80
2023-03-05T01:40:43.620Z,53.90
2023-03-05T01:41:45.726Z,54.00
2023-03-05T01:42:50.192Z,54.00
2023-03-05T01:43:52.997Z,54.20
2023-03-05T01:45:06.143Z,54.20
2023-03-05T01:46:35.785Z,54.20
2023-03-05T01:47:38.077Z,53.10
2023-03-05T01:48:45.198Z,52.70
2023-03-05T01:49:48.349Z,53.10
2023-03-05T01:50:50.645Z,53.30
2023-03-05T01:52:03.134Z,53.40
2023-03-05T01:53:08.130Z,53.50
2023-03-05T01:54:15.335Z,53.50
2023-03-05T01:55:22.433Z,53.50
2023-03-05T01:56:27.755Z,53.50
2023-03-05T01:57:37.299Z,53.20
2023-03-05T01:58:39.907Z,53.40
2023-03-05T01:59:48.760Z,53.50
2023-03-05T02:00:53.789Z,53.50
2023-03-05T02:02:00.487Z,53.50
2023-03-05T02:03:07.411Z,53.60
2023-03-05T02:04:15.755Z,53.60
2023-03-05T02:05:26.991Z,53.70
2023-03-05T02:06:30.754Z,53.70
2023-03-05T02:07:37.190Z,53.80
2023-03-05T02:08:40.433Z,53.90
2023-03-05T02:09:42.660Z,53.90
2023-03-05T02:10:49.145Z,53.80
2023-03-05T02:11:52.632Z,53.80
2023-03-05T02:12:59.791Z,53.80
2023-03-05T02:14:03.015Z,53.70
2023-03-05T02:15:07.600Z,53.70
2023-03-05T02:16:10.141Z,53.80
2023-03-05T02:17:14.194Z,53.70
2023-03-05T02:18:18.214Z,53.70
2023-03-05T02:19:21.373Z,53.50
2023-03-05T02:20:26.910Z,53.40
2023-03-05T02:21:39.376Z,53.30
2023-03-05T02:22:41.768Z,54.10
2023-03-05T02:23:44.917Z,53.40
2023-03-05T02:24:47.155Z,53.40
2023-03-05T02:25:50.532Z,53.40
2023-03-05T02:26:52.741Z,53.30
2023-03-05T02:28:01.146Z,52.90
2023-03-05T02:29:07.136Z,53.10
2023-03-05T02:30:12.686Z,53.00
2023-03-05T02:31:17.531Z,53.10
2023-03-05T02:32:20.740Z,53.10
2023-03-05T02:33:23.088Z,53.00
2023-03-05T02:34:26.269Z,52.90
2023-03-05T02:35:28.553Z,52.80
2023-03-05T02:36:33.450Z,52.70
2023-03-05T02:37:35.589Z,52.60
2023-03-05T02:38:38.815Z,52.50
2023-03-05T02:39:43.795Z,52.60
2023-03-05T02:40:47.263Z,52.50
2023-03-05T02:41:49.512Z,52.50
2023-03-05T02:42:52.858Z,52.40
2023-03-05T02:43:55.035Z,52.40
2023-03-05T02:44:58.196Z,52.40
2023-03-05T02:46:00.349Z,52.30
2023-03-05T02:47:03.639Z,52.20
2023-03-05T02:48:06.357Z,52.20
2023-03-05T02:49:09.584Z,52.00
2023-03-05T02:50:13.062Z,51.90
2023-03-05T02:51:16.513Z,51.80
2023-03-05T02:52:20.143Z,51.80
2023-03-05T02:53:23.771Z,51.70
2023-03-05T02:54:25.907Z,51.70
2023-03-05T02:55:29.213Z,51.80
2023-03-05T02:56:31.712Z,51.70
2023-03-05T02:57:34.898Z,51.70
2023-03-05T02:58:37.049Z,51.60
2023-03-05T02:59:40.217Z,51.30
2023-03-05T03:00:42.410Z,51.30
2023-03-05T03:01:45.520Z,51.40
2023-03-05T03:02:48.674Z,51.30
2023-03-05T03:03:50.977Z,51.30
2023-03-05T03:04:54.113Z,51.30
2023-03-05T03:05:56.327Z,51.20
2023-03-05T03:06:59.489Z,51.10
2023-03-05T03:08:03.318Z,51.10
2023-03-05T03:09:10.635Z,51.10
2023-03-05T03:10:13.222Z,51.10
2023-03-05T03:11:16.349Z,51.10
2023-03-05T03:12:18.606Z,51.00
2023-03-05T03:13:21.787Z,51.10
2023-03-05T03:14:23.913Z,51.10
2023-03-05T03:15:27.544Z,51.80
2023-03-05T03:16:29.692Z,51.20
2023-03-05T03:17:33.094Z,51.20
2023-03-05T03:18:35.760Z,51.10
2023-03-05T03:19:40.084Z,51.00
2023-03-05T03:20:42.961Z,51.00
2023-03-05T03:21:46.091Z,51.60
2023-03-05T03:22:48.517Z,50.90
2023-03-05T03:23:52.955Z,50.90
2023-03-05T03:24:56.077Z,50.90
2023-03-05T03:25:59.406Z,50.90
2023-03-05T03:27:02.315Z,51.00
2023-03-05T03:28:05.519Z,51.00
2023-03-05T03:29:07.770Z,50.90
2023-03-05T03:30:12.294Z,50.80
2023-03-05T03:31:14.884Z,50.80
2023-03-05T03:32:18.221Z,50.70
2023-03-05T03:33:20.450Z,50.70
2023-03-05T03:34:23.743Z,50.60
2023-03-05T03:35:26.132Z,50.50
2023-03-05T03:36:29.542Z,51.20
2023-03-05T03:37:32.158Z,50.40
2023-03-05T03:38:35.287Z,50.50
2023-03-05T03:39:38.777Z,51.30
2023-03-05T03:40:42.262Z,50.50
2023-03-05T03:41:47.996Z,50.30
2023-03-05T03:42:52.738Z,50.40
2023-03-05T03:43:54.887Z,50.40
2023-03-05T03:44:58.040Z,50.50
2023-03-05T03:46:00.247Z,50.50
2023-03-05T03:47:03.463Z,50.60
2023-03-05T03:48:05.672Z,50.70
2023-03-05T03:49:09.414Z,50.90
2023-03-05T03:50:12.439Z,50.90
2023-03-05T03:51:15.677Z,51.00
2023-03-05T03:52:17.889Z,50.90
2023-03-05T03:53:21.013Z,50.90
2023-03-05T03:54:23.332Z,50.80
2023-03-05T03:55:27.961Z,50.80
2023-03-05T03:56:30.123Z,50.90
2023-03-05T03:57:33.744Z,51.70
2023-03-05T03:58:36.009Z,51.10
2023-03-05T03:59:41.195Z,51.10
2023-03-05T04:00:43.294Z,51.20
2023-03-05T04:01:46.463Z,51.10
2023-03-05T04:02:48.674Z,51.20
2023-03-05T04:03:52.074Z,51.10
2023-03-05T04:04:54.290Z,51.10
2023-03-05T04:05:57.427Z,51.10
2023-03-05T04:06:59.681Z,51.20
2023-03-05T04:08:03.512Z,51.20
2023-03-05T04:09:05.770Z,51.30
2023-03-05T04:10:09.732Z,51.40
2023-03-05T04:11:13.323Z,51.40
2023-03-05T04:12:18.283Z,51.40
2023-03-05T04:13:20.934Z,51.40
2023-03-05T04:14:24.072Z,51.40
2023-03-05T04:15:26.198Z,51.40
2023-03-05T04:16:29.310Z,51.40
2023-03-05T04:17:32.827Z,51.40
2023-03-05T04:18:36.002Z,51.30
2023-03-05T04:19:38.430Z,51.20
2023-03-05T04:20:41.539Z,51.20
2023-03-05T04:21:43.685Z,51.10
2023-03-05T04:22:46.751Z,51.10
2023-03-05T04:23:48.993Z,51.10
2023-03-05T04:24:52.201Z,51.10
2023-03-05T04:25:54.322Z,51.10
2023-03-05T04:26:58.815Z,51.00
2023-03-05T04:28:00.907Z,51.20
2023-03-05T04:29:04.113Z,51.20
2023-03-05T04:30:08.001Z,51.20
2023-03-05T04:31:11.309Z,51.20
2023-03-05T04:32:13.606Z,51.20
2023-03-05T04:33:16.937Z,51.00
2023-03-05T04:34:19.057Z,51.00
2023-03-05T04:35:22.244Z,51.00
2023-03-05T04:36:24.600Z,51.10
2023-03-05T04:37:28.187Z,51.10
2023-03-05T04:38:31.308Z,51.00
2023-03-05T04:39:33.406Z,51.10
2023-03-05T04:40:37.218Z,51.10
2023-03-05T04:41:39.360Z,51.20
2023-03-05T04:42:43.789Z,51.20
2023-03-05T04:43:45.941Z,51.30
2023-03-05T04:44:49.319Z,51.20
2023-03-05T04:45:51.456Z,51.20
2023-03-05T04:46:54.601Z,51.10
2023-03-05T04:47:57.597Z,51.00
2023-03-05T04:49:01.375Z,50.90
2023-03-05T04:50:04.786Z,50.80
2023-03-05T04:51:07.944Z,50.70
2023-03-05T04:52:11.327Z,50.40
2023-03-05T04:53:14.411Z,50.30
2023-03-05T04:54:16.562Z,50.40
2023-03-05T04:55:19.910Z,50.60
2023-03-05T04:56:22.087Z,50.70
2023-03-05T04:57:25.318Z,50.70
2023-03-05T04:58:29.422Z,50.60
2023-03-05T04:59:32.582Z,50.70
2023-03-05T05:00:34.790Z,50.70
2023-03-05T05:01:38.737Z,50.80
2023-03-05T05:02:42.075Z,50.90
2023-03-05T05:03:45.215Z,51.00
2023-03-05T05:04:47.457Z,51.00
2023-03-05T05:05:55.867Z,50.90
2023-03-05T05:06:58.402Z,51.00
2023-03-05T05:08:01.530Z,50.90
2023-03-05T05:09:04.043Z,51.00
2023-03-05T05:10:08.365Z,51.00
2023-03-05T05:11:14.636Z,51.00
2023-03-05T05:12:18.493Z,51.00
2023-03-05T05:13:20.637Z,51.00
2023-03-05T05:14:25.148Z,51.00
2023-03-05T05:15:27.300Z,51.00
2023-03-05T05:16:30.443Z,51.10
2023-03-05T05:17:33.990Z,51.20
2023-03-05T05:18:37.638Z,51.40
2023-03-05T05:19:39.860Z,51.40
2023-03-05T05:20:42.975Z,51.40
2023-03-05T05:21:46.145Z,51.50
2023-03-05T05:22:48.267Z,51.50
2023-03-05T05:23:51.393Z,51.50
2023-03-05T05:24:53.469Z,51.50
2023-03-05T05:26:00.312Z,51.40
2023-03-05T05:27:02.409Z,51.50
2023-03-05T05:28:05.982Z,51.50
2023-03-05T05:29:08.082Z,51.60
2023-03-05T05:30:14.148Z,51.60
2023-03-05T05:31:17.630Z,51.60
2023-03-05T05:32:22.666Z,51.60
2023-03-05T05:33:26.418Z,51.70
2023-03-05T05:34:29.671Z,52.30
2023-03-05T05:35:31.899Z,51.70
2023-03-05T05:36:35.094Z,51.70
2023-03-05T05:37:37.248Z,51.80
2023-03-05T05:38:40.495Z,51.70
2023-03-05T05:39:42.633Z,51.70
2023-03-05T05:40:45.836Z,51.80
2023-03-05T05:41:50.633Z,51.80
2023-03-05T05:42:53.705Z,51.80
2023-03-05T05:43:55.868Z,51.80
2023-03-05T05:44:59.695Z,51.90
2023-03-05T05:46:05.831Z,51.90
2023-03-05T05:47:09.087Z,51.90
2023-03-05T05:48:11.240Z,51.90
2023-03-05T05:49:14.382Z,51.80
2023-03-05T05:50:16.651Z,51.80
2023-03-05T05:51:21.925Z,51.80
2023-03-05T05:52:24.097Z,52.00
2023-03-05T05:53:28.040Z,52.00
2023-03-05T05:54:30.159Z,52.00
2023-03-05T05:55:33.250Z,52.00
2023-03-05T05:56:35.426Z,52.00
2023-03-05T05:57:39.238Z,52.20
2023-03-05T05:58:44.316Z,52.20
2023-03-05T05:59:47.619Z,52.20
2023-03-05T06:00:49.761Z,52.90
2023-03-05T06:01:54.358Z,52.90
2023-03-05T06:02:56.494Z,52.20
2023-03-05T06:04:01.228Z,52.20
2023-03-05T06:05:03.600Z,52.20
2023-03-05T06:06:10.960Z,52.20
2023-03-05T06:07:13.044Z,52.20
2023-03-05T06:08:16.287Z,52.20
2023-03-05T06:09:18.550Z,52.20
2023-03-05T06:10:21.846Z,52.20
2023-03-05T06:11:26.947Z,52.20
2023-03-05T06:12:30.648Z,52.20
2023-03-05T06:13:32.897Z,52.20
2023-03-05T06:14:36.049Z,52.20
2023-03-05T06:15:38.176Z,52.20
2023-03-05T06:16:41.568Z,52.20
2023-03-05T06:17:45.314Z,52.20
2023-03-05T06:18:49.057Z,52.40
2023-03-05T06:19:54.163Z,52.30
2023-03-05T06:20:58.025Z,52.30
2023-03-05T06:22:00.354Z,52.20
2023-03-05T06:23:03.484Z,52.20
2023-03-05T06:24:06.607Z,52.30
2023-03-05T06:25:11.150Z,52.40
2023-03-05T06:26:15.714Z,52.40
2023-03-05T06:27:18.855Z,52.40
2023-03-05T06:28:21.702Z,52.40
2023-03-05T06:29:24.965Z,52.40
2023-03-05T06:30:27.205Z,52.30
2023-03-05T06:31:31.672Z,52.30
2023-03-05T06:32:33.910Z,52.40
2023-03-05T06:33:39.021Z,52.40
2023-03-05T06:34:42.162Z,52.40
2023-03-05T06:35:44.496Z,52.40
2023-03-05T06:36:47.748Z,52.50
2023-03-05T06:37:49.901Z,52.50
2023-03-05T06:38:53.896Z,52.30
2023-03-05T06:39:56.136Z,52.00
2023-03-05T06:41:02.893Z,52.20
2023-03-05T06:42:05.392Z,52.30
2023-03-05T06:43:08.514Z,52.30
2023-03-05T06:44:11.661Z,52.40
2023-03-05T06:45:14.703Z,52.50
2023-03-05T06:46:20.537Z,52.50
2023-03-05T06:47:22.757Z,52.60
2023-03-05T06:48:26.004Z,52.50
2023-03-05T06:49:29.526Z,52.60
2023-03-05T06:50:36.131Z,52.70
2023-03-05T06:51:40.064Z,52.80
2023-03-05T06:52:43.504Z,52.90
2023-03-05T06:53:48.986Z,52.90
2023-03-05T06:54:52.817Z,52.90
2023-03-05T06:55:55.617Z,52.90
2023-03-05T06:56:58.853Z,52.90
2023-03-05T06:58:01.039Z,53.10
2023-03-05T06:59:04.618Z,53.00
2023-03-05T07:00:09.282Z,53.10
2023-03-05T07:01:12.480Z,53.10
2023-03-05T07:02:14.862Z,52.90
2023-03-05T07:03:17.994Z,53.00
2023-03-05T07:04:20.164Z,53.00
2023-03-05T07:05:24.680Z,53.00
2023-03-05T07:06:27.867Z,53.00
2023-03-05T07:07:30.985Z,52.90
2023-03-05T07:08:33.589Z,52.90
2023-03-05T07:09:42.719Z,52.80
2023-03-05T07:10:45.372Z,52.80
2023-03-05T07:11:48.638Z,52.80
2023-03-05T07:12:51.006Z,52.90
2023-03-05T07:13:54.189Z,53.00
2023-03-05T07:14:56.430Z,53.00
2023-03-05T07:15:59.620Z,53.20
2023-03-05T07:17:01.792Z,53.10
2023-03-05T07:18:05.471Z,52.80
2023-03-05T07:19:10.918Z,52.70
2023-03-05T07:20:13.881Z,52.90
2023-03-05T07:21:21.306Z,53.10
2023-03-05T07:22:23.474Z,53.10
2023-03-05T07:23:26.558Z,53.10
2023-03-05T07:24:29.984Z,53.10
2023-03-05T07:25:34.208Z,53.40
2023-03-05T07:26:36.734Z,53.50
2023-03-05T07:27:39.958Z,53.50
2023-03-05T07:28:42.894Z,53.50
2023-03-05T07:29:46.096Z,54.30
2023-03-05T07:30:57.168Z,53.60
2023-03-05T07:31:59.316Z,53.80
2023-03-05T07:33:03.050Z,53.80
2023-03-05T07:34:06.584Z,53.90
2023-03-05T07:35:10.689Z,53.80
2023-03-05T07:36:13.577Z,53.90
2023-03-05T07:37:18.142Z,53.90
2023-03-05T07:38:20.574Z,54.70
2023-03-05T07:39:24.915Z,53.90
2023-03-05T07:40:27.108Z,53.80
2023-03-05T07:41:30.333Z,53.80
2023-03-05T07:42:32.609Z,53.90
2023-03-05T07:43:35.974Z,53.80
2023-03-05T07:44:39.032Z,54.00
2023-03-05T07:45:42.907Z,53.90
2023-03-05T07:46:45.071Z,53.80
2023-03-05T07:47:48.260Z,53.90
2023-03-05T07:48:50.397Z,53.80
2023-03-05T07:49:53.577Z,53.80
2023-03-05T07:51:01.854Z,54.00
2023-03-05T07:52:05.294Z,53.90
2023-03-05T07:53:09.168Z,53.80
2023-03-05T07:54:12.493Z,53.80
2023-03-05T07:55:14.874Z,53.70
2023-03-05T07:56:23.361Z,53.80
2023-03-05T07:57:25.560Z,54.50
2023-03-05T07:58:28.731Z,53.60
2023-03-05T07:59:31.994Z,53.70
2023-03-05T08:00:35.144Z,53.70
2023-03-05T08:01:38.623Z,53.80
2023-03-05T08:02:40.928Z,53.60
2023-03-05T08:03:44.716Z,53.70
2023-03-05T08:04:47.920Z,54.50
2023-03-05T08:05:50.043Z,54.40
2023-03-05T08:06:53.322Z,54.00
2023-03-05T08:07:55.507Z,54.20
2023-03-05T08:09:01.203Z,54.10
2023-03-05T08:10:03.664Z,54.20
2023-03-05T08:11:08.386Z,54.10
2023-03-05T08:12:11.558Z,54.10
2023-03-05T08:13:13.697Z,54.30
2023-03-05T08:14:17.019Z,54.10
2023-03-05T08:15:19.630Z,54.20
2023-03-05T08:16:25.961Z,54.40
2023-03-05T08:17:28.329Z,54.20
2023-03-05T08:18:31.704Z,54.20
2023-03-05T08:19:35.153Z,54.40
2023-03-05T08:20:37.345Z,54.20
2023-03-05T08:21:40.552Z,54.00
2023-03-05T08:22:42.758Z,54.00
2023-03-05T08:23:46.018Z,54.10
2023-03-05T08:24:52.085Z,54.10
2023-03-05T08:25:54.387Z,54.10
2023-03-05T08:26:58.392Z,53.80
2023-03-05T08:28:00.659Z,54.00
2023-03-05T08:29:03.873Z,53.90
2023-03-05T08:30:07.245Z,54.10
2023-03-05T08:31:11.646Z,53.90
2023-03-05T08:32:13.924Z,53.70
2023-03-05T08:33:18.390Z,53.60
2023-03-05T08:34:21.654Z,53.40
2023-03-05T08:35:24.797Z,53.50
2023-03-05T08:36:29.217Z,52.80
2023-03-05T08:37:32.424Z,52.90
2023-03-05T08:38:34.670Z,53.00
2023-03-05T08:39:38.261Z,53.70
2023-03-05T08:40:43.174Z,52.70
2023-03-05T08:41:46.991Z,52.50
2023-03-05T08:42:49.264Z,52.70
2023-03-05T08:43:52.472Z,53.00
2023-03-05T08:44:54.835Z,52.90
2023-03-05T08:45:58.552Z,52.90
2023-03-05T08:47:01.683Z,53.20
2023-03-05T08:48:04.025Z,52.90
2023-03-05T08:49:08.216Z,52.90
2023-03-05T08:50:11.739Z,52.90
2023-03-05T08:51:16.858Z,53.70
2023-03-05T08:52:19.015Z,52.80
2023-03-05T08:53:22.186Z,52.60
2023-03-05T08:54:25.376Z,52.50
2023-03-05T08:55:28.638Z,52.30
2023-03-05T08:56:35.842Z,52.50
2023-03-05T08:57:38.046Z,52.40
2023-03-05T08:58:41.918Z,52.90
2023-03-05T08:59:44.082Z,52.70
2023-03-05T09:00:47.279Z,52.80
2023-03-05T09:01:50.937Z,52.60
2023-03-05T09:02:53.205Z,52.50
2023-03-05T09:03:56.624Z,52.50
2023-03-05T09:04:58.812Z,52.30
2023-03-05T09:06:03.257Z,52.40
2023-03-05T09:07:05.843Z,52.30
2023-03-05T09:08:09.085Z,52.70
2023-03-05T09:09:12.180Z,52.20
2023-03-05T09:10:34.533Z,51.80
2023-03-05T09:11:39.228Z,52.20
2023-03-05T09:12:52.374Z,53.00
2023-03-05T09:13:55.560Z,52.00
2023-03-05T09:14:58.008Z,52.00
2023-03-05T09:16:10.716Z,52.20
2023-03-05T09:17:14.122Z,52.30
2023-03-05T09:18:16.296Z,52.60
2023-03-05T09:19:19.475Z,52.60
2023-03-05T09:20:21.704Z,52.40
2023-03-05T09:21:24.790Z,52.40
2023-03-05T09:22:27.015Z,52.60
2023-03-05T09:23:30.169Z,52.00
2023-03-05T09:24:32.489Z,51.90
2023-03-05T09:25:35.604Z,51.70
2023-03-05T09:26:40.939Z,51.40
2023-03-05T09:27:45.366Z,50.90
2023-03-05T09:28:48.497Z,51.10
2023-03-05T09:29:53.085Z,50.60
2023-03-05T09:30:55.322Z,50.20
2023-03-05T09:31:58.716Z,49.30
2023-03-05T09:33:01.125Z,48.60
2023-03-05T09:34:05.502Z,49.00
2023-03-05T09:35:09.930Z,48.40
2023-03-05T09:36:20.707Z,48.00
2023-03-05T09:37:26.822Z,47.50
2023-03-05T09:38:30.386Z,47.80
2023-03-05T09:39:32.559Z,48.30
2023-03-05T09:40:46.959Z,48.60
2023-03-05T09:42:13.902Z,48.60
2023-03-05T09:43:32.338Z,48.90
2023-03-05T09:44:45.646Z,48.80
2023-03-05T09:46:02.162Z,48.90
2023-03-05T09:47:23.470Z,48.50
2023-03-05T09:48:41.454Z,47.90
2023-03-05T09:49:59.185Z,48.00
2023-03-05T09:51:03.461Z,48.50
2023-03-05T09:52:16.032Z,49.10
2023-03-05T09:53:32.025Z,49.50
2023-03-05T09:54:42.715Z,49.60
2023-03-05T09:55:48.888Z,49.70
2023-03-05T09:57:01.550Z,49.80
2023-03-05T09:58:11.008Z,49.90
2023-03-05T09:59:44.497Z,50.30
2023-03-05T10:00:50.608Z,50.30
2023-03-05T10:01:57.188Z,50.20
2023-03-05T10:03:05.179Z,50.20
2023-03-05T10:04:14.993Z,50.50
2023-03-05T10:05:25.061Z,50.30
2023-03-05T10:06:32.751Z,50.20
2023-03-05T10:07:42.735Z,49.80
2023-03-05T10:08:53.490Z,50.00
2023-03-05T10:10:01.192Z,50.50
2023-03-05T10:11:15.453Z,50.20
2023-03-05T10:12:28.740Z,50.60
2023-03-05T10:13:35.405Z,50.70
2023-03-05T10:14:41.620Z,50.80
2023-03-05T10:15:58.863Z,50.90
2023-03-05T10:17:25.343Z,51.00
2023-03-05T10:18:38.221Z,51.20
2023-03-05T10:21:33.055Z,51.30
2023-03-05T10:22:56.757Z,50.80
2023-03-05T10:24:12.391Z,51.20
2023-03-05T10:25:26.494Z,51.30
2023-03-05T10:27:00.193Z,51.30
2023-03-05T10:28:17.889Z,50.70
2023-03-05T10:29:51.974Z,50.60
2023-03-05T10:31:13.285Z,50.30
2023-03-05T10:32:28.746Z,50.10
2023-03-05T10:33:40.293Z,50.00
2023-03-05T10:35:05.879Z,50.20
2023-03-05T10:36:36.412Z,50.00
2023-03-05T10:38:05.300Z,49.90
2023-03-05T10:39:52.952Z,50.20
2023-03-05T10:41:05.589Z,50.30
2023-03-05T10:42:23.134Z,50.20
2023-03-05T10:43:46.851Z,50.20
2023-03-05T10:44:54.205Z,50.40
2023-03-05T10:45:59.540Z,50.10
2023-03-05T10:47:09.119Z,50.10
2023-03-05T10:48:28.707Z,50.50
2023-03-05T10:49:36.817Z,50.50
2023-03-05T10:50:45.518Z,50.50
2023-03-05T10:51:54.729Z,50.70
2023-03-05T10:53:14.054Z,50.90
2023-03-05T10:54:25.394Z,50.20
2023-03-05T10:55:28.811Z,50.50
2023-03-05T10:56:31.861Z,50.60
2023-03-05T10:57:35.008Z,50.40
2023-03-05T10:58:38.860Z,49.90
2023-03-05T10:59:47.937Z,49.50
2023-03-05T11:01:06.612Z,49.40
2023-03-05T11:02:10.594Z,49.50
2023-03-05T11:03:13.713Z,49.00
2023-03-05T11:04:28.419Z,48.80
2023-03-05T11:05:49.932Z,48.90
2023-03-05T11:06:52.144Z,49.00
2023-03-05T11:07:55.313Z,48.70
2023-03-05T11:09:21.172Z,48.40
2023-03-05T11:10:23.439Z,48.50
2023-03-05T11:11:26.605Z,47.60
2023-03-05T11:12:30.371Z,47.80
2023-03-05T11:13:34.945Z,48.20
2023-03-05T11:14:42.291Z,48.40
2023-03-05T11:15:44.466Z,48.40
2023-03-05T11:16:50.890Z,48.80
2023-03-05T11:18:21.075Z,48.90
2023-03-05T11:19:29.810Z,49.30
2023-03-05T11:20:36.436Z,49.50
2023-03-05T11:21:39.777Z,49.70
2023-03-05T11:22:42.060Z,49.80
2023-03-05T11:23:45.371Z,50.00
2023-03-05T11:25:15.134Z,50.10
2023-03-05T11:26:24.180Z,50.40
2023-03-05T11:27:34.606Z,50.40
2023-03-05T11:28:41.133Z,50.40
2023-03-05T11:29:51.380Z,50.50
2023-03-05T11:31:00.189Z,50.70
2023-03-05T11:32:20.702Z,50.30
2023-03-05T11:33:23.801Z,50.60
2023-03-05T11:34:35.309Z,50.90
2023-03-05T11:35:39.923Z,50.90
2023-03-05T11:36:45.593Z,51.20
2023-03-05T11:38:01.125Z,51.30
2023-03-05T11:39:13.298Z,51.50
2023-03-05T11:40:21.148Z,51.80
2023-03-05T11:41:31.527Z,51.50
2023-03-05T11:42:34.595Z,51.70
2023-03-05T11:43:42.237Z,51.70
2023-03-05T11:44:51.516Z,52.10
2023-03-05T11:46:00.708Z,52.10
2023-03-05T11:47:14.967Z,52.40
2023-03-05T11:48:22.596Z,52.70
2023-03-05T11:49:28.505Z,53.00
2023-03-05T11:50:34.942Z,53.50
2023-03-05T11:51:43.764Z,53.80
2023-03-05T11:52:49.066Z,54.10
2023-03-05T11:53:56.748Z,54.20
2023-03-05T11:55:06.579Z,54.10
2023-03-05T11:56:20.884Z,54.30
2023-03-05T11:57:27.021Z,54.30
2023-03-05T11:58:35.558Z,54.10
2023-03-05T11:59:40.776Z,54.00
2023-03-05T12:00:46.841Z,54.00
2023-03-05T12:01:53.358Z,54.20
2023-03-05T12:02:59.040Z,53.90
2023-03-05T12:04:02.829Z,53.90
2023-03-05T12:05:07.761Z,53.60
2023-03-05T12:06:21.867Z,53.20
2023-03-05T12:07:35.769Z,53.20
2023-03-05T12:08:43.376Z,53.50
2023-03-05T12:09:50.216Z,53.10
2023-03-05T12:10:53.911Z,53.40
2023-03-05T12:12:07.187Z,52.80
2023-03-05T12:13:23.152Z,53.20
2023-03-05T12:14:36.799Z,53.30
2023-03-05T12:15:50.100Z,54.00
2023-03-05T12:16:59.761Z,54.00
2023-03-05T12:18:16.014Z,54.20
2023-03-05T12:19:38.869Z,54.40
2023-03-05T12:20:51.367Z,54.50
2023-03-05T12:21:55.586Z,54.60
2023-03-05T12:22:58.435Z,54.50
2023-03-05T12:24:05.016Z,54.70
2023-03-05T12:25:28.757Z,55.30
2023-03-05T12:27:06.517Z,55.10
2023-03-05T12:28:16.589Z,55.10
2023-03-05T12:29:29.926Z,55.10
2023-03-05T12:31:00.128Z,55.00
2023-03-05T12:32:03.958Z,54.90
2023-03-05T12:33:27.943Z,54.70
2023-03-05T12:34:57.002Z,54.60
2023-03-05T12:36:39.862Z,55.00
2023-03-05T12:38:17.362Z,55.00
2023-03-05T12:39:52.797Z,55.70
2023-03-05T12:41:27.965Z,55.70
2023-03-05T12:42:51.664Z,55.70
2023-03-05T12:44:11.019Z,55.90
2023-03-05T12:45:39.777Z,56.30
2023-03-05T12:46:45.104Z,56.40
2023-03-05T12:47:50.354Z,56.60
2023-03-05T12:48:54.040Z,56.70
2023-03-05T12:49:57.395Z,56.50
2023-03-05T12:51:00.708Z,56.40
2023-03-05T12:52:05.517Z,56.30
2023-03-05T12:53:13.754Z,56.20
2023-03-05T12:54:34.288Z,56.10
2023-03-05T12:55:46.002Z,56.20
2023-03-05T12:56:49.859Z,56.20
2023-03-05T12:58:00.779Z,56.00
2023-03-05T12:59:04.382Z,56.00
2023-03-05T13:00:15.754Z,56.00
2023-03-05T13:01:39.427Z,56.60
2023-03-05T13:02:45.904Z,55.80
2023-03-05T13:03:55.912Z,55.70
2023-03-05T13:05:03.203Z,55.60
2023-03-05T13:06:09.476Z,55.60
2023-03-05T13:07:16.159Z,55.50
2023-03-05T13:08:24.321Z,55.40
2023-03-05T13:09:30.000Z,55.30
2023-03-05T13:10:33.209Z,54.90
2023-03-05T13:11:40.046Z,54.60
2023-03-05T13:12:52.919Z,53.90
2023-03-05T13:13:57.658Z,53.10
2023-03-05T13:15:05.133Z,53.20
2023-03-05T13:16:17.787Z,53.10
2023-03-05T13:17:38.120Z,52.90
2023-03-05T13:18:42.534Z,53.10
2023-03-05T13:19:46.319Z,53.30
2023-03-05T13:20:58.932Z,53.30
2023-03-05T13:22:11.930Z,53.00
2023-03-05T13:23:24.754Z,52.90
2023-03-05T13:24:29.084Z,52.80
2023-03-05T13:25:32.370Z,52.90
2023-03-05T13:26:41.296Z,52.80
2023-03-05T13:27:46.798Z,52.90
2023-03-05T13:29:10.318Z,52.10
2023-03-05T13:30:25.312Z,52.00
2023-03-05T13:31:28.755Z,52.50
2023-03-05T13:32:33.256Z,52.60
2023-03-05T13:33:37.725Z,52.70
2023-03-05T13:34:48.916Z,52.70
2023-03-05T13:35:53.932Z,52.10
2023-03-05T13:37:00.840Z,51.60
2023-03-05T13:38:04.108Z,51.30
2023-03-05T13:39:07.781Z,50.80
2023-03-05T13:40:22.214Z,51.00
2023-03-05T13:41:27.083Z,51.10
2023-03-05T13:42:32.780Z,51.50
2023-03-05T13:43:42.392Z,51.20
2023-03-05T13:44:54.220Z,50.50
2023-03-05T13:45:57.995Z,49.90
2023-03-05T13:47:09.769Z,50.40
2023-03-05T13:48:19.904Z,51.00
2023-03-05T13:49:25.176Z,50.70
2023-03-05T13:50:32.461Z,50.30
2023-03-05T13:51:45.018Z,50.10
2023-03-05T13:52:48.156Z,49.90
2023-03-05T13:53:52.953Z,49.70
2023-03-05T13:54:56.685Z,49.40
2023-03-05T13:56:01.508Z,49.30
2023-03-05T13:57:07.644Z,49.50
2023-03-05T13:58:47.643Z,48.80
2023-03-05T13:59:54.516Z,48.20
2023-03-05T14:01:04.598Z,48.90
2023-03-05T14:02:18.209Z,49.40
2023-03-05T14:03:24.813Z,48.60
2023-03-05T14:04:30.856Z,48.60
2023-03-05T14:05:34.879Z,49.10
2023-03-05T14:06:43.616Z,49.30
2023-03-05T14:07:50.004Z,49.10
2023-03-05T14:08:58.063Z,48.40
2023-03-05T14:10:03.778Z,48.30
2023-03-05T14:11:14.642Z,48.70